createdAt,value
2022-11-19T00:01:28.822Z,99822.00
2022-11-19T00:03:56.578Z,99829.00
2022-11-19T00:06:27.544Z,99820.00
2022-11-19T00:08:55.745Z,99828.00
2022-11-19T00:11:45.240Z,99830.00
2022-11-19T00:14:14.882Z,99826.00
2022-11-19T00:16:44.092Z,99827.00
2022-11-19T00:19:12.139Z,99810.00
2022-11-19T00:21:39.301Z,99825.00
2022-11-19T00:24:07.326Z,99823.00
2022-11-19T00:26:34.475Z,99801.00
2022-11-19T00:29:01.569Z,99820.00
2022-11-19T00:31:28.705Z,99810.00
2022-11-19T00:33:55.812Z,99806.00
2022-11-19T00:36:23.674Z,99807.00
2022-11-19T00:38:50.729Z,99805.00
2022-11-19T00:41:18.297Z,99804.00
2022-11-19T00:43:48.488Z,99800.00
2022-11-19T00:46:31.170Z,99802.00
2022-11-19T00:49:00.167Z,99803.00
2022-11-19T00:51:30.619Z,99803.00
2022-11-19T00:53:58.501Z,99794.00
2022-11-19T00:56:28.007Z,99804.00
2022-11-19T00:58:55.682Z,99800.00
2022-11-19T01:01:25.560Z,99804.00
2022-11-19T01:03:54.044Z,99758.00
2022-11-19T01:06:24.669Z,99796.00
2022-11-19T01:08:53.149Z,99797.00
2022-11-19T01:11:33.382Z,99765.00
2022-11-19T01:14:02.257Z,99791.00
2022-11-19T01:16:38.430Z,99783.00
2022-11-19T01:19:07.809Z,99771.00
2022-11-19T01:21:36.834Z,99778.00
2022-11-19T01:24:05.654Z,99778.00
2022-11-19T01:26:32.747Z,99779.00
2022-11-19T01:28:59.970Z,99777.00
2022-11-19T01:31:29.885Z,99780.00
2022-11-19T01:33:58.934Z,99783.00
2022-11-19T01:36:29.936Z,99778.00
2022-11-19T01:38:57.771Z,99790.00
2022-11-19T01:41:31.579Z,99700.00
2022-11-19T01:44:06.294Z,99783.00
2022-11-19T01:46:38.272Z,99779.00
2022-11-19T01:49:19.382Z,99776.00
2022-11-19T01:51:58.335Z,99780.00
2022-11-19T01:54:35.097Z,99787.00
2022-11-19T01:57:14.384Z,99782.00
2022-11-19T01:59:43.914Z,99788.00
2022-11-19T02:02:11.010Z,99785.00
2022-11-19T02:04:39.905Z,99784.00
2022-11-19T02:07:11.578Z,99795.00
2022-11-19T02:09:40.219Z,99782.00
2022-11-19T02:12:16.290Z,99795.00
2022-11-19T02:15:22.126Z,99792.00
2022-11-19T02:18:00.806Z,99783.00
2022-11-19T02:20:51.599Z,99767.00
2022-11-19T02:24:15.430Z,99786.00
2022-11-19T02:26:53.702Z,99786.00
2022-11-19T02:29:29.496Z,99781.00
2022-11-19T02:32:14.618Z,99779.00
2022-11-19T02:35:19.938Z,99770.00
2022-11-19T02:38:03.705Z,99790.00
2022-11-19T02:40:40.447Z,99762.00
2022-11-19T02:43:31.274Z,99768.00
2022-11-19T02:46:09.555Z,99760.00
2022-11-19T02:48:49.758Z,99764.00
2022-11-19T02:51:18.649Z,99767.00
2022-11-19T02:53:48.453Z,99759.00
2022-11-19T02:56:55.067Z,99760.00
2022-11-19T02:59:46.428Z,99758.00
2022-11-19T03:02:36.543Z,99759.00
2022-11-19T03:05:11.393Z,99763.00
2022-11-19T03:07:38.906Z,99766.00
2022-11-19T03:10:10.352Z,99751.00
2022-11-19T03:12:46.427Z,99755.00
2022-11-19T03:16:05.649Z,99717.00
2022-11-19T03:18:50.353Z,99753.00
2022-11-19T03:21:34.424Z,99740.00
2022-11-19T03:24:09.674Z,99749.00
2022-11-19T03:27:04.199Z,99755.00
2022-11-19T03:29:36.405Z,99754.00
2022-11-19T03:32:10.456Z,99742.00
2022-11-19T03:34:41.095Z,99744.00
2022-11-19T03:37:10.748Z,99751.00
2022-11-19T03:39:40.217Z,99750.00
2022-11-19T03:42:13.765Z,99757.00
2022-11-19T03:44:49.476Z,99742.00
2022-11-19T03:47:26.222Z,99748.00
2022-11-19T03:50:02.754Z,99746.00
2022-11-19T03:52:29.863Z,99751.00
2022-11-19T03:54:57.253Z,99747.00
2022-11-19T03:57:27.324Z,99745.00
2022-11-19T03:59:54.340Z,99749.00
2022-11-19T04:02:21.598Z,99748.00
2022-11-19T04:04:48.551Z,99739.00
2022-11-19T04:07:22.106Z,99747.00
2022-11-19T04:09:49.901Z,99746.00
2022-11-19T04:12:23.243Z,99749.00
2022-11-19T04:14:51.601Z,99747.00
2022-11-19T04:17:19.963Z,99740.00
2022-11-19T04:19:47.024Z,99730.00
2022-11-19T04:22:13.898Z,99749.00
2022-11-19T04:24:40.910Z,99744.00
2022-11-19T04:27:07.888Z,99745.00
2022-11-19T04:29:34.812Z,99738.00
2022-11-19T04:32:01.717Z,99731.00
2022-11-19T04:34:28.616Z,99701.00
2022-11-19T04:36:57.858Z,99733.00
2022-11-19T04:39:25.107Z,99722.00
2022-11-19T04:41:52.056Z,99721.00
2022-11-19T04:44:19.150Z,99724.00
2022-11-19T04:46:46.046Z,99720.00
2022-11-19T04:49:12.974Z,99722.00
2022-11-19T04:51:39.881Z,99715.00
2022-11-19T04:54:08.680Z,99715.00
2022-11-19T04:56:37.085Z,99703.00
2022-11-19T04:59:05.035Z,99705.00
2022-11-19T05:01:32.305Z,99705.00
2022-11-19T05:03:59.407Z,99704.00
2022-11-19T05:06:26.395Z,99703.00
2022-11-19T05:08:53.370Z,99697.00
2022-11-19T05:11:20.296Z,99692.00
2022-11-19T05:13:47.230Z,99691.00
2022-11-19T05:16:14.119Z,99693.00
2022-11-19T05:18:41.105Z,99685.00
2022-11-19T05:21:08.091Z,99696.00
2022-11-19T05:23:35.231Z,99682.00
2022-11-19T05:26:02.197Z,99686.00
2022-11-19T05:28:38.692Z,99695.00
2022-11-19T05:31:07.526Z,99694.00
2022-11-19T05:33:34.852Z,99688.00
2022-11-19T05:36:02.918Z,99650.00
2022-11-19T05:38:29.914Z,99693.00
2022-11-19T05:40:56.911Z,99693.00
2022-11-19T05:43:24.111Z,99679.00
2022-11-19T05:45:51.016Z,99680.00
2022-11-19T05:48:17.947Z,99653.00
2022-11-19T05:50:44.867Z,99698.00
2022-11-19T05:53:11.834Z,99677.00
2022-11-19T05:55:38.694Z,99692.00
2022-11-19T05:58:05.624Z,99682.00
2022-11-19T06:00:32.571Z,99690.00
2022-11-19T06:02:59.601Z,99689.00
2022-11-19T06:05:26.567Z,99691.00
2022-11-19T06:07:53.495Z,99692.00
2022-11-19T06:10:20.443Z,99689.00
2022-11-19T06:12:47.370Z,99698.00
2022-11-19T06:15:15.243Z,99695.00
2022-11-19T06:17:42.525Z,99703.00
2022-11-19T06:20:11.325Z,99704.00
2022-11-19T06:22:39.034Z,99698.00
2022-11-19T06:25:07.835Z,99702.00
2022-11-19T06:27:35.170Z,99707.00
2022-11-19T06:30:02.389Z,99706.00
2022-11-19T06:32:29.371Z,99703.00
2022-11-19T06:34:56.310Z,99685.00
2022-11-19T06:37:23.620Z,99716.00
2022-11-19T06:39:50.629Z,99705.00
2022-11-19T06:42:36.239Z,99713.00
2022-11-19T06:45:10.977Z,99706.00
2022-11-19T06:47:39.947Z,99701.00
2022-11-19T06:50:09.881Z,99704.00
2022-11-19T06:52:37.362Z,99699.00
2022-11-19T06:55:05.424Z,99705.00
2022-11-19T06:57:32.327Z,99708.00
2022-11-19T06:59:59.277Z,99701.00
2022-11-19T07:02:26.239Z,99697.00
2022-11-19T07:04:53.183Z,99697.00
2022-11-19T07:07:21.034Z,99702.00
2022-11-19T07:09:48.109Z,99701.00
2022-11-19T07:12:15.048Z,99699.00
2022-11-19T07:14:42.251Z,99707.00
2022-11-19T07:17:09.188Z,99667.00
2022-11-19T07:19:36.154Z,99700.00
2022-11-19T07:22:03.210Z,99696.00
2022-11-19T07:24:31.589Z,99690.00
2022-11-19T07:26:58.653Z,99696.00
2022-11-19T07:29:25.644Z,99690.00
2022-11-19T07:31:53.393Z,99693.00
2022-11-19T07:34:20.771Z,99694.00
2022-11-19T07:36:49.397Z,99705.00
2022-11-19T07:39:18.111Z,99698.00
2022-11-19T07:42:03.697Z,99703.00
2022-11-19T07:44:30.790Z,99692.00
2022-11-19T07:46:58.470Z,99699.00
2022-11-19T07:49:26.136Z,99706.00
2022-11-19T07:51:54.542Z,99708.00
2022-11-19T07:54:21.621Z,99702.00
2022-11-19T07:56:48.560Z,99705.00
2022-11-19T07:59:15.684Z,99706.00
2022-11-19T08:01:42.965Z,99709.00
2022-11-19T08:04:09.964Z,99704.00
2022-11-19T08:06:39.834Z,99702.00
2022-11-19T08:09:06.982Z,99709.00
2022-11-19T08:11:33.905Z,99711.00
2022-11-19T08:14:01.873Z,99693.00
2022-11-19T08:16:47.591Z,99708.00
2022-11-19T08:19:16.754Z,99710.00
2022-11-19T08:21:47.041Z,99715.00
2022-11-19T08:24:19.733Z,99717.00
2022-11-19T08:26:48.504Z,99704.00
2022-11-19T08:29:18.070Z,99710.00
2022-11-19T08:31:48.115Z,99707.00
2022-11-19T08:34:16.547Z,99710.00
2022-11-19T08:36:44.284Z,99712.00
2022-11-19T08:39:11.847Z,99705.00
2022-11-19T08:41:57.373Z,99711.00
2022-11-19T08:44:24.389Z,99704.00
2022-11-19T08:46:51.406Z,99715.00
2022-11-19T08:49:18.594Z,99701.00
2022-11-19T08:51:45.635Z,99705.00
2022-11-19T08:54:13.254Z,99698.00
2022-11-19T08:56:40.658Z,99708.00
2022-11-19T08:59:07.621Z,99702.00
2022-11-19T09:01:35.476Z,99701.00
2022-11-19T09:04:02.484Z,99704.00
2022-11-19T09:06:29.359Z,99708.00
2022-11-19T09:08:56.389Z,99698.00
2022-11-19T09:11:23.511Z,99702.00
2022-11-19T09:13:50.594Z,99693.00
2022-11-19T09:16:17.585Z,99699.00
2022-11-19T09:18:44.571Z,99700.00
2022-11-19T09:21:12.452Z,99691.00
2022-11-19T09:23:41.422Z,99706.00
2022-11-19T09:26:17.676Z,99703.00
2022-11-19T09:28:45.740Z,99698.00
2022-11-19T09:31:17.044Z,99692.00
2022-11-19T09:33:49.033Z,99664.00
2022-11-19T09:36:16.613Z,99693.00
2022-11-19T09:38:44.516Z,99706.00
2022-11-19T09:41:48.974Z,99699.00
2022-11-19T09:44:51.088Z,99686.00
2022-11-19T09:47:51.875Z,99695.00
2022-11-19T09:50:20.715Z,99699.00
2022-11-19T09:53:06.426Z,99688.00
2022-11-19T09:55:42.918Z,99691.00
2022-11-19T09:58:24.631Z,99695.00
2022-11-19T10:00:51.677Z,99699.00
2022-11-19T10:03:23.195Z,99698.00
2022-11-19T10:06:35.030Z,99695.00
2022-11-19T10:09:33.595Z,99708.00
2022-11-19T10:12:43.847Z,99701.00
2022-11-19T10:15:44.171Z,99700.00
2022-11-19T10:18:23.231Z,99707.00
2022-11-19T10:21:14.515Z,99702.00
2022-11-19T10:24:08.732Z,99684.00
2022-11-19T10:26:40.950Z,99693.00
2022-11-19T10:29:24.765Z,99705.00
2022-11-19T10:31:52.544Z,99691.00
2022-11-19T10:34:33.695Z,99693.00
2022-11-19T10:37:10.167Z,99685.00
2022-11-19T10:39:47.838Z,99690.00
2022-11-19T10:42:38.633Z,99697.00
2022-11-19T10:45:37.847Z,99694.00
2022-11-19T10:48:14.946Z,99693.00
2022-11-19T10:50:42.371Z,99684.00
2022-11-19T10:53:33.413Z,99695.00
2022-11-19T10:56:23.454Z,99684.00
2022-11-19T10:59:16.367Z,99692.00
2022-11-19T11:01:52.582Z,99683.00
2022-11-19T11:04:28.983Z,99679.00
2022-11-19T11:07:00.232Z,99575.00
2022-11-19T11:09:40.515Z,99683.00
2022-11-19T11:12:45.327Z,99674.00
2022-11-19T11:15:17.095Z,99680.00
2022-11-19T11:17:46.939Z,99659.00
2022-11-19T11:20:20.082Z,99675.00
2022-11-19T11:22:51.930Z,99680.00
2022-11-19T11:25:28.144Z,99676.00
2022-11-19T11:28:23.454Z,99685.00
2022-11-19T11:31:01.992Z,99673.00
2022-11-19T11:33:40.918Z,99686.00
2022-11-19T11:36:23.415Z,99651.00
2022-11-19T11:38:54.670Z,99688.00
2022-11-19T11:44:24.578Z,99661.00
2022-11-19T11:47:01.861Z,99680.00
2022-11-19T11:49:45.492Z,99673.00
2022-11-19T11:52:12.345Z,99670.00
2022-11-19T11:55:01.902Z,99667.00
2022-11-19T11:57:30.815Z,99672.00
2022-11-19T11:59:58.189Z,99666.00
2022-11-19T12:02:35.324Z,99674.00
2022-11-19T12:05:15.637Z,99669.00
2022-11-19T12:08:07.176Z,99667.00
2022-11-19T12:10:53.723Z,99672.00
2022-11-19T12:14:00.578Z,99680.00
2022-11-19T12:16:42.859Z,99672.00
2022-11-19T12:19:41.757Z,99677.00
2022-11-19T12:22:22.300Z,99672.00
2022-11-19T12:24:57.920Z,99675.00
2022-11-19T12:27:46.698Z,99669.00
2022-11-19T12:30:52.796Z,99674.00
2022-11-19T12:33:52.832Z,99682.00
2022-11-19T12:37:00.330Z,99674.00
2022-11-19T12:39:59.613Z,99675.00
2022-11-19T12:43:06.395Z,99684.00
2022-11-19T12:45:50.901Z,99678.00
2022-11-19T12:48:56.655Z,99678.00
2022-11-19T12:51:35.505Z,99670.00
2022-11-19T12:54:24.348Z,99672.00
2022-11-19T12:57:37.773Z,99676.00
2022-11-19T13:00:21.113Z,99676.00
2022-11-19T13:03:24.382Z,99680.00
2022-11-19T13:06:00.343Z,99678.00
2022-11-19T13:08:49.409Z,99683.00
2022-11-19T13:11:40.849Z,99677.00
2022-11-19T13:14:44.653Z,99691.00
2022-11-19T13:17:51.035Z,99695.00
2022-11-19T13:33:30.950Z,99694.00
2022-11-19T13:36:33.345Z,99684.00
2022-11-19T13:39:19.965Z,99694.00
2022-11-19T13:42:10.863Z,99704.00
2022-11-19T13:44:38.522Z,99704.00
2022-11-19T13:47:32.347Z,99696.00
2022-11-19T13:50:22.473Z,99698.00
2022-11-19T13:53:15.971Z,99694.00
2022-11-19T13:55:45.285Z,99694.00
2022-11-19T13:58:22.825Z,99678.00
2022-11-19T14:01:08.635Z,99702.00
2022-11-19T14:04:21.596Z,99706.00
2022-11-19T14:07:31.267Z,99705.00
2022-11-19T14:10:10.673Z,99709.00
2022-11-19T14:13:07.068Z,99704.00
2022-11-19T14:16:28.331Z,99704.00
2022-11-19T14:19:20.603Z,99691.00
2022-11-19T14:22:12.829Z,99713.00
2022-11-19T14:24:58.551Z,99707.00
2022-11-19T14:27:31.620Z,99715.00
2022-11-19T14:30:09.916Z,99715.00
2022-11-19T14:32:46.406Z,99713.00
2022-11-19T14:35:35.736Z,99716.00
2022-11-19T14:38:10.459Z,99710.00
2022-11-19T14:40:43.496Z,99706.00
2022-11-19T14:43:34.981Z,99709.00
2022-11-19T14:46:02.796Z,99709.00
2022-11-19T14:48:47.363Z,99716.00
2022-11-19T14:51:18.883Z,99711.00
2022-11-19T14:54:18.234Z,99719.00
2022-11-19T14:56:59.667Z,99723.00
2022-11-19T14:59:35.024Z,99712.00
2022-11-19T15:02:23.292Z,99709.00
2022-11-19T15:05:02.036Z,99707.00
2022-11-19T15:08:19.374Z,99705.00
2022-11-19T15:11:04.643Z,99702.00
2022-11-19T15:13:37.933Z,99699.00
2022-11-19T15:16:14.033Z,99698.00
2022-11-19T15:18:41.021Z,99700.00
2022-11-19T15:21:10.988Z,99696.00
2022-11-19T15:24:20.946Z,99700.00
2022-11-19T15:27:20.094Z,99687.00
2022-11-19T15:30:07.074Z,99689.00
2022-11-19T15:32:59.046Z,99691.00
2022-11-19T15:35:50.905Z,99684.00
2022-11-19T15:38:20.446Z,99692.00
2022-11-19T15:40:51.347Z,99686.00
2022-11-19T15:43:34.644Z,99687.00
2022-11-19T15:46:11.893Z,99673.00
2022-11-19T15:49:01.841Z,99682.00
2022-11-19T15:51:34.451Z,99693.00
2022-11-19T15:54:05.369Z,99677.00
2022-11-19T15:56:48.483Z,99687.00
2022-11-19T15:59:20.108Z,99685.00
2022-11-19T16:02:01.716Z,99690.00
2022-11-19T16:04:39.165Z,99680.00
2022-11-19T16:07:10.049Z,99650.00
2022-11-19T16:09:38.155Z,99690.00
2022-11-19T16:12:23.968Z,99663.00
2022-11-19T16:15:12.112Z,99690.00
2022-11-19T16:17:48.622Z,99696.00
2022-11-19T16:20:24.505Z,99682.00
2022-11-19T16:23:00.193Z,99690.00
2022-11-19T16:25:37.320Z,99695.00
2022-11-19T16:28:14.235Z,99696.00
2022-11-19T16:30:53.375Z,99695.00
2022-11-19T16:33:27.724Z,99702.00
2022-11-19T16:36:12.680Z,99690.00
2022-11-19T16:38:46.518Z,99684.00
2022-11-19T16:41:35.703Z,99684.00
2022-11-19T16:44:09.108Z,99697.00
2022-11-19T16:46:37.403Z,99690.00
2022-11-19T16:49:14.072Z,99696.00
2022-11-19T16:51:53.343Z,99707.00
2022-11-19T16:54:50.115Z,99697.00
2022-11-19T16:57:23.920Z,99703.00
2022-11-19T17:00:14.434Z,99710.00
2022-11-19T17:02:42.085Z,99705.00
2022-11-19T17:05:14.771Z,99699.00
2022-11-19T17:08:08.583Z,99708.00
2022-11-19T17:10:35.574Z,99703.00
2022-11-19T17:13:20.211Z,99709.00
2022-11-19T17:15:50.129Z,99701.00
2022-11-19T17:18:32.451Z,99666.00
2022-11-19T17:21:29.588Z,99704.00
2022-11-19T17:23:57.104Z,99697.00
2022-11-19T17:26:27.500Z,99697.00
2022-11-19T17:29:22.793Z,99696.00
2022-11-19T17:31:54.485Z,99703.00
2022-11-19T17:34:33.574Z,99687.00
2022-11-19T17:37:07.126Z,99705.00
2022-11-19T17:39:44.048Z,99705.00
2022-11-19T17:42:30.584Z,99702.00
2022-11-19T17:44:57.640Z,99714.00
2022-11-19T17:47:26.623Z,99707.00
2022-11-19T17:49:53.735Z,99718.00
2022-11-19T17:52:30.416Z,99718.00
2022-11-19T17:55:22.359Z,99707.00
2022-11-19T17:57:49.523Z,99714.00
2022-11-19T18:00:16.927Z,99705.00
2022-11-19T18:02:44.028Z,99714.00
2022-11-19T18:05:20.047Z,99702.00
2022-11-19T18:07:47.107Z,99715.00
2022-11-19T18:10:15.375Z,99715.00
2022-11-19T18:12:42.324Z,99696.00
2022-11-19T18:15:17.955Z,99709.00
2022-11-19T18:17:45.105Z,99700.00
2022-11-19T18:20:13.020Z,99699.00
2022-11-19T18:22:41.108Z,99709.00
2022-11-19T18:25:21.860Z,99714.00
2022-11-19T18:27:49.160Z,99713.00
2022-11-19T18:30:16.886Z,99687.00
2022-11-19T18:32:43.912Z,99713.00
2022-11-19T18:35:19.712Z,99715.00
2022-11-19T18:37:47.151Z,99707.00
2022-11-19T18:40:15.780Z,99721.00
2022-11-19T18:43:03.315Z,99709.00
2022-11-19T18:45:30.964Z,99712.00
2022-11-19T18:47:58.023Z,99724.00
2022-11-19T18:50:29.647Z,99720.00
2022-11-19T18:52:57.167Z,99725.00
2022-11-19T18:55:24.115Z,99720.00
2022-11-19T18:57:51.136Z,99715.00
2022-11-19T19:00:18.599Z,99724.00
2022-11-19T19:13:51.022Z,99720.00
2022-11-19T19:16:18.135Z,99728.00
2022-11-19T19:18:45.086Z,99726.00
2022-11-19T19:21:23.235Z,99721.00
2022-11-19T19:23:50.662Z,99734.00
2022-11-19T19:26:19.485Z,99729.00
2022-11-19T19:28:54.219Z,99722.00
2022-11-19T19:31:23.977Z,99725.00
2022-11-19T19:33:52.233Z,99727.00
2022-11-19T19:36:21.899Z,99718.00
2022-11-19T19:38:49.064Z,99729.00
2022-11-19T19:41:21.133Z,99726.00
2022-11-19T19:43:49.941Z,99732.00
2022-11-19T19:46:20.466Z,99729.00
2022-11-19T19:48:53.649Z,99727.00
2022-11-19T19:51:24.389Z,99728.00
2022-11-19T19:53:53.249Z,99738.00
2022-11-19T19:56:28.451Z,99742.00
2022-11-19T19:58:57.727Z,99738.00
2022-11-19T20:01:32.233Z,99727.00
2022-11-19T20:04:09.173Z,99733.00
2022-11-19T20:06:41.616Z,99747.00
2022-11-19T20:09:21.813Z,99718.00
2022-11-19T20:11:51.857Z,99741.00
2022-11-19T20:14:18.933Z,99732.00
2022-11-19T20:16:46.030Z,99741.00
2022-11-19T20:19:15.182Z,99735.00
2022-11-19T20:21:42.792Z,99744.00
2022-11-19T20:24:14.680Z,99744.00
2022-11-19T20:26:42.998Z,99755.00
2022-11-19T20:29:16.803Z,99753.00
2022-11-19T20:31:50.394Z,99749.00
2022-11-19T20:34:17.965Z,99760.00
2022-11-19T20:36:45.413Z,99746.00
2022-11-19T20:39:12.865Z,99752.00
2022-11-19T20:42:09.194Z,99745.00
2022-11-19T20:44:36.223Z,99762.00
2022-11-19T20:47:04.463Z,99764.00
2022-11-19T20:49:35.491Z,99734.00
2022-11-19T20:52:03.714Z,99759.00
2022-11-19T20:54:31.519Z,99726.00
2022-11-19T20:57:00.287Z,99756.00
2022-11-19T20:59:28.143Z,99764.00
2022-11-19T21:01:56.696Z,99768.00
2022-11-19T21:04:27.070Z,99756.00
2022-11-19T21:06:54.458Z,99753.00
2022-11-19T21:09:22.357Z,99751.00
2022-11-19T21:11:50.058Z,99764.00
2022-11-19T21:14:17.703Z,99748.00
2022-11-19T21:16:45.403Z,99750.00
2022-11-19T21:19:12.819Z,99760.00
2022-11-19T21:21:40.163Z,99764.00
2022-11-19T21:24:08.091Z,99762.00
2022-11-19T21:26:35.055Z,99766.00
2022-11-19T21:29:02.267Z,99764.00
2022-11-19T21:31:39.009Z,99772.00
2022-11-19T21:34:09.294Z,99776.00
2022-11-19T21:36:36.755Z,99777.00
2022-11-19T21:39:05.438Z,99779.00
2022-11-19T21:41:33.796Z,99791.00
2022-11-19T21:44:02.710Z,99780.00
2022-11-19T21:46:29.810Z,99789.00
2022-11-19T21:48:57.077Z,99786.00
2022-11-19T21:51:25.179Z,99787.00
2022-11-19T21:53:59.493Z,99756.00
2022-11-19T21:56:31.281Z,99784.00
2022-11-19T21:59:00.710Z,99789.00
2022-11-19T22:01:27.890Z,99780.00
2022-11-19T22:03:54.805Z,99781.00
2022-11-19T22:06:21.864Z,99781.00
2022-11-19T22:08:48.808Z,99792.00
2022-11-19T22:11:31.032Z,99786.00
2022-11-19T22:14:05.287Z,99795.00
2022-11-19T22:16:38.717Z,99780.00
2022-11-19T22:19:06.759Z,99791.00
2022-11-19T22:21:34.812Z,99778.00
2022-11-19T22:24:02.695Z,99790.00
2022-11-19T22:26:30.528Z,99789.00
2022-11-19T22:28:57.820Z,99793.00
2022-11-19T22:31:25.649Z,99780.00
2022-11-19T22:33:54.039Z,99781.00
2022-11-19T22:36:23.092Z,99788.00
2022-11-19T22:38:51.434Z,99786.00
2022-11-19T22:41:21.164Z,99788.00
2022-11-19T22:43:48.612Z,99779.00
2022-11-19T22:46:16.522Z,99779.00
2022-11-19T22:48:43.647Z,99782.00
2022-11-19T22:51:23.991Z,99788.00
2022-11-19T22:53:53.087Z,99785.00
2022-11-19T22:56:25.219Z,99775.00
2022-11-19T22:58:53.114Z,99780.00
2022-11-19T23:01:39.939Z,99769.00
2022-11-19T23:04:08.028Z,99772.00
2022-11-19T23:06:37.511Z,99761.00
2022-11-19T23:09:05.935Z,99764.00
2022-11-19T23:11:53.290Z,99766.00
2022-11-19T23:14:21.321Z,99777.00
2022-11-19T23:16:48.765Z,99773.00
2022-11-19T23:19:19.209Z,99763.00
2022-11-19T23:21:47.108Z,99761.00
2022-11-19T23:24:14.587Z,99765.00
2022-11-19T23:26:41.887Z,99769.00
2022-11-19T23:29:09.234Z,99775.00
2022-11-19T23:31:39.376Z,99782.00
2022-11-19T23:34:07.720Z,99775.00
2022-11-19T23:36:38.607Z,99785.00
2022-11-19T23:39:08.133Z,99777.00
2022-11-19T23:41:35.246Z,99783.00
2022-11-19T23:44:03.157Z,99765.00
2022-11-19T23:46:33.977Z,99766.00
2022-11-19T23:49:02.595Z,99771.00
2022-11-19T23:51:38.335Z,99775.00
2022-11-19T23:54:06.044Z,99776.00
2022-11-19T23:56:36.055Z,99777.00
2022-11-19T23:59:05.277Z,99769.00
